Eglin Air Force Base
KVPS : now visible

Airfield :











YOU CAN JOIN US ON...

 
LOGIN :

Register | Disclaimer

   EN    FR    IT 

 









Legend :    VFR   Marginal VFR   IFR   Intensive IFR   Very Intensive IFR
Visi :
Ceiling :
>= 8 km
>= 3000ft
5 to 8 km
1000 to 3000 ft
1500m to 5 km
500 to 1000 ft
800 to 1500m
200 to 500 ft
< 800m
< 200 ft
Symbols :   Thunderstorms  Fog  Heavy snow  Heavy precipitations  Wind > 20 kt






- Airport Elevation : 87 ft
- IATA code : VPS


KVPS - Eglin Air Force Base

CURRENT METAR :
  • 070855Z AUTO 01004KT 10SM CLR 15/11 A3009 RMK AO2 SLP196 T01490109 58001 $

EXPIRED METARs :
  • 070755Z AUTO 00000KT 10SM CLR 16/12 A3009 RMK AO2 SLP196 T01600116 $
  • 070655Z AUTO 00000KT 10SM CLR 15/13 A3009 RMK AO2 SLP196 T01510133 $

TAF TAF KVPS
Valid from the 07 at 09:00 until the 08 at 15:00 UTC


070900Z 0709/0815 36008KT 9999 SKC QNH3003INS
BECMG 0719/0720 20009KT 9999 FEW250 QNH3006INS
BECMG 0805/0806 36008KT 9999 FEW050 SCT250 QNH3004INS WND 01012KT AFT 0815 TX29/0720Z TN14/0712Z
KZJX FIR / North America



MET'MAP, your aeronautical weather chart ! - Copyright ORBIFLY December 2007 - Disclaimer

ORBIFLY MET'MAP TEAM :

Programming & Development : Alexandra Zaïnal
Original concept : Baudouin d'Aumeries
Technical & hardware support : Manuel Goepfert
Assistance : Marc-Olivier Méhu




SOURCES & CREDITS :

   NOAA       Earth
Advisory